Hauptseite
METAR-TAF:

METAR-TAF

Flughäfen :

Flughafen Rarotonga

Rarotonga, Cookinseln

Breite: 21-12S, Länge: 159-49W, Höhe: 7 m

Beobachtung

Neuester Wetterbericht von vor 13 Minuten, um 13:00 UTC
Wind 6 kt aus Ost
Temperatur 22°C
Luftfeuchtigkeit 78%
Luftdruck 1018 hPa
Sichtweite 10 km oder mehr
Leicht bewölkt in der Höhe von 2300 ft

METAR: NCRG 201300Z 10006KT 9999 FEW023 22/18 Q1018

Zeit: 03:13 (13:13 UTC)

Prognose

Neuester Wetterbericht von vor 2 Stunden und 0 Minuten, um 11:13 UTC
Gültige Prognose vom 20 um 12 UTC bis 21 um 12 UTC
Wind 9 kt aus Ost
Sichtweite 10 km oder mehr
Aufgelockert bewölkt in der Höhe von 2000 ft

TAF: NCRG 201113Z 2012/2112 09009KT 9999 SCT020

Wetterbeobachtungen und Prognosen von mehr als 4000 Flughäfen (METAR und TAF Bericht).

Die verfügbaren Stationen werden durch gelbe und rote Markierungen auf der Karte dargestellt.

Führen Sie die Maus auf sie, um den Namen der Station zu sehen.

Darauf klicken, um die Beobachtung von Wetterbeobachtungen und Prognosen zu sehen.

Um die Karte zu ändern : klicken Sie auf den grünen Tasten mit einem schwarzen Kreuz Zum Vergrößern, auf den grünen Button mit einem Gedankenstrich zu verkleinern, oder auf die grünen Pfeile für benachbarte Karten.


METAR-TAF: